sensor_id;sensor_type;location;lat;lon;timestamp;P1;durP1;ratioP1;P2;durP2;ratioP2
41077;SDS011;26823;42.662;23.352;2023-06-14T00:01:44;10.98;;;9.23;;
41077;SDS011;26823;42.662;23.352;2023-06-14T00:04:14;15.25;;;10.15;;
41077;SDS011;26823;42.662;23.352;2023-06-14T00:06:41;12.82;;;9.57;;
41077;SDS011;26823;42.662;23.352;2023-06-14T00:09:10;13.98;;;8.85;;
41077;SDS011;26823;42.662;23.352;2023-06-14T00:11:35;12.73;;;8.68;;
41077;SDS011;26823;42.662;23.352;2023-06-14T00:14:01;11.80;;;8.35;;
41077;SDS011;26823;42.662;23.352;2023-06-14T00:16:27;13.55;;;8.48;;
41077;SDS011;26823;42.662;23.352;2023-06-14T00:18:53;12.48;;;8.30;;
41077;SDS011;26823;42.662;23.352;2023-06-14T00:21:18;13.68;;;8.85;;
41077;SDS011;26823;42.662;23.352;2023-06-14T00:23:44;10.90;;;7.65;;
41077;SDS011;26823;42.662;23.352;2023-06-14T00:26:09;10.27;;;7.78;;
41077;SDS011;26823;42.662;23.352;2023-06-14T00:28:35;10.25;;;6.70;;
41077;SDS011;26823;42.662;23.352;2023-06-14T00:31:02;8.52;;;7.07;;
41077;SDS011;26823;42.662;23.352;2023-06-14T00:33:27;8.27;;;7.18;;
41077;SDS011;26823;42.662;23.352;2023-06-14T00:35:53;9.25;;;6.55;;
41077;SDS011;26823;42.662;23.352;2023-06-14T00:38:21;9.55;;;6.93;;
41077;SDS011;26823;42.662;23.352;2023-06-14T00:40:47;8.93;;;7.03;;
41077;SDS011;26823;42.662;23.352;2023-06-14T00:43:12;9.52;;;6.88;;
41077;SDS011;26823;42.662;23.352;2023-06-14T00:45:38;9.48;;;6.40;;
41077;SDS011;26823;42.662;23.352;2023-06-14T00:48:03;12.85;;;5.93;;
41077;SDS011;26823;42.662;23.352;2023-06-14T00:50:31;7.93;;;6.55;;
41077;SDS011;26823;42.662;23.352;2023-06-14T00:52:58;6.70;;;6.03;;
41077;SDS011;26823;42.662;23.352;2023-06-14T00:55:25;12.50;;;6.70;;
41077;SDS011;26823;42.662;23.352;2023-06-14T00:57:54;7.90;;;6.53;;
41077;SDS011;26823;42.662;23.352;2023-06-14T01:00:21;7.47;;;6.55;;
41077;SDS011;26823;42.662;23.352;2023-06-14T01:02:46;8.77;;;6.65;;
41077;SDS011;26823;42.662;23.352;2023-06-14T01:05:12;6.97;;;6.20;;
41077;SDS011;26823;42.662;23.352;2023-06-14T01:15:07;8.20;;;6.07;;
41077;SDS011;26823;42.662;23.352;2023-06-14T01:17:34;6.65;;;5.95;;
41077;SDS011;26823;42.662;23.352;2023-06-14T01:20:03;6.13;;;5.50;;
41077;SDS011;26823;42.662;23.352;2023-06-14T01:22:34;10.95;;;6.50;;
41077;SDS011;26823;42.662;23.352;2023-06-14T01:25:01;7.18;;;5.90;;
41077;SDS011;26823;42.662;23.352;2023-06-14T01:27:26;6.93;;;6.13;;
41077;SDS011;26823;42.662;23.352;2023-06-14T01:29:54;7.63;;;5.90;;
41077;SDS011;26823;42.662;23.352;2023-06-14T01:32:26;8.15;;;5.85;;
41077;SDS011;26823;42.662;23.352;2023-06-14T01:34:53;7.57;;;5.50;;
41077;SDS011;26823;42.662;23.352;2023-06-14T01:37:19;7.03;;;5.82;;
41077;SDS011;26823;42.662;23.352;2023-06-14T01:39:45;10.60;;;6.32;;
41077;SDS011;26823;42.662;23.352;2023-06-14T01:42:13;8.45;;;5.10;;
41077;SDS011;26823;42.662;23.352;2023-06-14T01:44:41;7.10;;;5.78;;
41077;SDS011;26823;42.662;23.352;2023-06-14T01:47:08;10.85;;;5.88;;
41077;SDS011;26823;42.662;23.352;2023-06-14T01:49:34;9.43;;;5.47;;
41077;SDS011;26823;42.662;23.352;2023-06-14T01:52:06;6.88;;;6.20;;
41077;SDS011;26823;42.662;23.352;2023-06-14T01:54:34;11.75;;;5.85;;
41077;SDS011;26823;42.662;23.352;2023-06-14T01:57:02;6.70;;;6.00;;
41077;SDS011;26823;42.662;23.352;2023-06-14T01:59:28;8.43;;;6.63;;
41077;SDS011;26823;42.662;23.352;2023-06-14T02:01:53;8.48;;;6.05;;
41077;SDS011;26823;42.662;23.352;2023-06-14T02:04:19;9.45;;;6.28;;
41077;SDS011;26823;42.662;23.352;2023-06-14T02:06:44;11.18;;;6.47;;
41077;SDS011;26823;42.662;23.352;2023-06-14T02:09:10;8.35;;;6.72;;
41077;SDS011;26823;42.662;23.352;2023-06-14T02:11:35;7.38;;;6.03;;
41077;SDS011;26823;42.662;23.352;2023-06-14T02:14:00;7.47;;;6.05;;
41077;SDS011;26823;42.662;23.352;2023-06-14T02:16:26;8.70;;;5.95;;
41077;SDS011;26823;42.662;23.352;2023-06-14T02:18:53;8.65;;;5.57;;
41077;SDS011;26823;42.662;23.352;2023-06-14T02:21:18;6.22;;;5.63;;
41077;SDS011;26823;42.662;23.352;2023-06-14T02:23:44;7.90;;;7.10;;
41077;SDS011;26823;42.662;23.352;2023-06-14T02:26:10;6.65;;;5.97;;
41077;SDS011;26823;42.662;23.352;2023-06-14T02:28:35;6.35;;;5.72;;
41077;SDS011;26823;42.662;23.352;2023-06-14T02:31:00;8.52;;;6.88;;
41077;SDS011;26823;42.662;23.352;2023-06-14T02:33:26;6.80;;;6.00;;
41077;SDS011;26823;42.662;23.352;2023-06-14T02:35:51;6.25;;;5.60;;
41077;SDS011;26823;42.662;23.352;2023-06-14T02:38:17;8.27;;;6.47;;
41077;SDS011;26823;42.662;23.352;2023-06-14T02:40:43;7.25;;;5.75;;
41077;SDS011;26823;42.662;23.352;2023-06-14T02:43:08;8.35;;;6.53;;
41077;SDS011;26823;42.662;23.352;2023-06-14T02:45:34;7.28;;;6.00;;
41077;SDS011;26823;42.662;23.352;2023-06-14T02:47:59;6.72;;;5.90;;
41077;SDS011;26823;42.662;23.352;2023-06-14T02:50:25;7.90;;;5.80;;
41077;SDS011;26823;42.662;23.352;2023-06-14T02:52:51;9.10;;;6.13;;
41077;SDS011;26823;42.662;23.352;2023-06-14T02:55:17;7.97;;;6.38;;
41077;SDS011;26823;42.662;23.352;2023-06-14T02:57:43;9.73;;;6.43;;
41077;SDS011;26823;42.662;23.352;2023-06-14T03:00:08;8.45;;;7.10;;
41077;SDS011;26823;42.662;23.352;2023-06-14T03:02:38;7.28;;;6.38;;
41077;SDS011;26823;42.662;23.352;2023-06-14T03:05:03;7.30;;;6.07;;
41077;SDS011;26823;42.662;23.352;2023-06-14T03:07:31;7.93;;;6.10;;
41077;SDS011;26823;42.662;23.352;2023-06-14T03:09:57;6.80;;;5.97;;
41077;SDS011;26823;42.662;23.352;2023-06-14T03:12:23;7.70;;;6.47;;
41077;SDS011;26823;42.662;23.352;2023-06-14T03:14:56;6.80;;;5.90;;
41077;SDS011;26823;42.662;23.352;2023-06-14T03:17:21;6.78;;;6.03;;
41077;SDS011;26823;42.662;23.352;2023-06-14T03:19:47;7.40;;;6.70;;
41077;SDS011;26823;42.662;23.352;2023-06-14T03:22:12;10.05;;;6.53;;
41077;SDS011;26823;42.662;23.352;2023-06-14T03:24:37;13.85;;;6.45;;
41077;SDS011;26823;42.662;23.352;2023-06-14T03:27:03;7.90;;;6.20;;
41077;SDS011;26823;42.662;23.352;2023-06-14T03:29:29;7.18;;;6.47;;
41077;SDS011;26823;42.662;23.352;2023-06-14T03:31:58;7.90;;;7.00;;
41077;SDS011;26823;42.662;23.352;2023-06-14T03:34:25;7.72;;;6.05;;
41077;SDS011;26823;42.662;23.352;2023-06-14T03:36:50;8.95;;;6.70;;
41077;SDS011;26823;42.662;23.352;2023-06-14T03:39:16;7.10;;;6.43;;
41077;SDS011;26823;42.662;23.352;2023-06-14T03:41:41;7.05;;;6.35;;
41077;SDS011;26823;42.662;23.352;2023-06-14T03:44:07;8.10;;;5.97;;
41077;SDS011;26823;42.662;23.352;2023-06-14T03:46:32;7.35;;;6.50;;
41077;SDS011;26823;42.662;23.352;2023-06-14T03:48:58;9.07;;;6.95;;
41077;SDS011;26823;42.662;23.352;2023-06-14T03:51:23;7.93;;;7.13;;
41077;SDS011;26823;42.662;23.352;2023-06-14T03:53:50;9.43;;;6.65;;
41077;SDS011;26823;42.662;23.352;2023-06-14T03:56:18;7.68;;;6.88;;
41077;SDS011;26823;42.662;23.352;2023-06-14T03:58:43;8.07;;;7.15;;
41077;SDS011;26823;42.662;23.352;2023-06-14T04:01:09;8.32;;;7.45;;
41077;SDS011;26823;42.662;23.352;2023-06-14T04:03:34;7.93;;;6.97;;
41077;SDS011;26823;42.662;23.352;2023-06-14T04:06:00;11.60;;;7.40;;
41077;SDS011;26823;42.662;23.352;2023-06-14T04:08:26;8.35;;;7.30;;
41077;SDS011;26823;42.662;23.352;2023-06-14T04:10:51;9.75;;;7.85;;
41077;SDS011;26823;42.662;23.352;2023-06-14T04:13:16;9.13;;;7.55;;
41077;SDS011;26823;42.662;23.352;2023-06-14T04:15:42;10.80;;;7.88;;
41077;SDS011;26823;42.662;23.352;2023-06-14T04:18:09;7.85;;;7.05;;
41077;SDS011;26823;42.662;23.352;2023-06-14T04:20:34;8.95;;;6.95;;
41077;SDS011;26823;42.662;23.352;2023-06-14T04:23:11;11.75;;;7.97;;
41077;SDS011;26823;42.662;23.352;2023-06-14T04:25:38;15.10;;;8.75;;
41077;SDS011;26823;42.662;23.352;2023-06-14T04:28:03;10.70;;;7.45;;
41077;SDS011;26823;42.662;23.352;2023-06-14T04:30:29;9.48;;;6.90;;
41077;SDS011;26823;42.662;23.352;2023-06-14T04:32:56;9.85;;;7.95;;
41077;SDS011;26823;42.662;23.352;2023-06-14T04:35:30;10.18;;;7.50;;
41077;SDS011;26823;42.662;23.352;2023-06-14T04:37:57;10.30;;;7.38;;
41077;SDS011;26823;42.662;23.352;2023-06-14T04:40:23;8.95;;;7.97;;
41077;SDS011;26823;42.662;23.352;2023-06-14T04:42:49;11.55;;;9.50;;
41077;SDS011;26823;42.662;23.352;2023-06-14T04:45:15;13.02;;;9.57;;
41077;SDS011;26823;42.662;23.352;2023-06-14T04:47:41;13.68;;;8.52;;
41077;SDS011;26823;42.662;23.352;2023-06-14T04:50:07;9.57;;;8.02;;
41077;SDS011;26823;42.662;23.352;2023-06-14T04:52:33;11.27;;;8.23;;
41077;SDS011;26823;42.662;23.352;2023-06-14T04:55:00;9.88;;;8.40;;
41077;SDS011;26823;42.662;23.352;2023-06-14T04:57:26;9.85;;;8.00;;
41077;SDS011;26823;42.662;23.352;2023-06-14T04:59:52;8.82;;;7.95;;
41077;SDS011;26823;42.662;23.352;2023-06-14T05:02:21;11.10;;;9.20;;
41077;SDS011;26823;42.662;23.352;2023-06-14T05:04:49;14.57;;;9.30;;
41077;SDS011;26823;42.662;23.352;2023-06-14T05:07:15;17.52;;;10.15;;
41077;SDS011;26823;42.662;23.352;2023-06-14T05:09:41;12.52;;;10.68;;
41077;SDS011;26823;42.662;23.352;2023-06-14T05:12:06;13.90;;;10.35;;
41077;SDS011;26823;42.662;23.352;2023-06-14T05:14:36;13.35;;;9.15;;
41077;SDS011;26823;42.662;23.352;2023-06-14T05:17:01;15.48;;;11.27;;
41077;SDS011;26823;42.662;23.352;2023-06-14T05:19:30;19.13;;;11.50;;
41077;SDS011;26823;42.662;23.352;2023-06-14T05:21:55;16.67;;;11.85;;
41077;SDS011;26823;42.662;23.352;2023-06-14T05:24:20;13.90;;;10.90;;
41077;SDS011;26823;42.662;23.352;2023-06-14T05:26:46;14.18;;;11.27;;
41077;SDS011;26823;42.662;23.352;2023-06-14T05:29:11;13.20;;;11.00;;
41077;SDS011;26823;42.662;23.352;2023-06-14T05:31:37;17.17;;;11.35;;
41077;SDS011;26823;42.662;23.352;2023-06-14T05:34:09;13.15;;;10.70;;
41077;SDS011;26823;42.662;23.352;2023-06-14T05:36:37;13.20;;;11.27;;
41077;SDS011;26823;42.662;23.352;2023-06-14T05:39:03;14.63;;;11.80;;
41077;SDS011;26823;42.662;23.352;2023-06-14T05:41:30;16.27;;;12.25;;
41077;SDS011;26823;42.662;23.352;2023-06-14T05:43:56;19.90;;;12.38;;
41077;SDS011;26823;42.662;23.352;2023-06-14T05:46:22;16.88;;;11.50;;
41077;SDS011;26823;42.662;23.352;2023-06-14T05:48:53;15.32;;;11.50;;
41077;SDS011;26823;42.662;23.352;2023-06-14T05:51:20;13.82;;;12.30;;
41077;SDS011;26823;42.662;23.352;2023-06-14T05:53:52;16.45;;;12.52;;
41077;SDS011;26823;42.662;23.352;2023-06-14T05:56:17;14.65;;;11.90;;
41077;SDS011;26823;42.662;23.352;2023-06-14T05:58:44;16.38;;;12.35;;
41077;SDS011;26823;42.662;23.352;2023-06-14T06:01:10;17.23;;;12.75;;
41077;SDS011;26823;42.662;23.352;2023-06-14T06:03:36;15.68;;;11.80;;
41077;SDS011;26823;42.662;23.352;2023-06-14T06:06:01;21.17;;;11.77;;
41077;SDS011;26823;42.662;23.352;2023-06-14T06:08:28;16.15;;;12.57;;
41077;SDS011;26823;42.662;23.352;2023-06-14T06:10:53;11.73;;;9.52;;
41077;SDS011;26823;42.662;23.352;2023-06-14T06:13:19;15.15;;;11.63;;
41077;SDS011;26823;42.662;23.352;2023-06-14T06:15:44;19.17;;;11.93;;
41077;SDS011;26823;42.662;23.352;2023-06-14T06:18:10;23.58;;;15.38;;
41077;SDS011;26823;42.662;23.352;2023-06-14T06:20:35;18.13;;;14.35;;
41077;SDS011;26823;42.662;23.352;2023-06-14T06:23:01;15.68;;;13.00;;
41077;SDS011;26823;42.662;23.352;2023-06-14T06:25:27;17.60;;;12.57;;
41077;SDS011;26823;42.662;23.352;2023-06-14T06:27:53;17.58;;;12.85;;
41077;SDS011;26823;42.662;23.352;2023-06-14T06:30:19;15.88;;;11.50;;
41077;SDS011;26823;42.662;23.352;2023-06-14T06:32:45;15.38;;;11.63;;
41077;SDS011;26823;42.662;23.352;2023-06-14T06:35:11;16.08;;;11.88;;
41077;SDS011;26823;42.662;23.352;2023-06-14T06:37:37;15.55;;;12.38;;
41077;SDS011;26823;42.662;23.352;2023-06-14T06:40:03;24.20;;;15.13;;
41077;SDS011;26823;42.662;23.352;2023-06-14T06:42:30;19.90;;;12.25;;
41077;SDS011;26823;42.662;23.352;2023-06-14T06:44:59;18.40;;;13.00;;
41077;SDS011;26823;42.662;23.352;2023-06-14T06:47:25;17.27;;;14.02;;
41077;SDS011;26823;42.662;23.352;2023-06-14T06:49:50;17.55;;;13.77;;
41077;SDS011;26823;42.662;23.352;2023-06-14T06:52:16;20.17;;;13.18;;
41077;SDS011;26823;42.662;23.352;2023-06-14T06:54:41;19.73;;;14.25;;
41077;SDS011;26823;42.662;23.352;2023-06-14T06:57:07;18.38;;;13.80;;
41077;SDS011;26823;42.662;23.352;2023-06-14T06:59:32;19.17;;;14.52;;
41077;SDS011;26823;42.662;23.352;2023-06-14T07:01:58;19.13;;;13.25;;
41077;SDS011;26823;42.662;23.352;2023-06-14T07:04:24;18.60;;;12.52;;
41077;SDS011;26823;42.662;23.352;2023-06-14T07:06:49;19.48;;;13.27;;
41077;SDS011;26823;42.662;23.352;2023-06-14T07:09:14;22.67;;;13.65;;
41077;SDS011;26823;42.662;23.352;2023-06-14T07:11:41;19.92;;;14.25;;
41077;SDS011;26823;42.662;23.352;2023-06-14T07:14:07;22.35;;;14.32;;
41077;SDS011;26823;42.662;23.352;2023-06-14T07:16:33;19.65;;;14.52;;
41077;SDS011;26823;42.662;23.352;2023-06-14T07:18:58;20.30;;;14.18;;
41077;SDS011;26823;42.662;23.352;2023-06-14T07:21:25;17.50;;;12.98;;
41077;SDS011;26823;42.662;23.352;2023-06-14T07:23:51;18.02;;;14.07;;
41077;SDS011;26823;42.662;23.352;2023-06-14T07:26:20;16.13;;;12.50;;
41077;SDS011;26823;42.662;23.352;2023-06-14T07:28:46;25.83;;;11.25;;
41077;SDS011;26823;42.662;23.352;2023-06-14T07:31:12;16.58;;;12.55;;
41077;SDS011;26823;42.662;23.352;2023-06-14T07:33:38;14.45;;;10.90;;
41077;SDS011;26823;42.662;23.352;2023-06-14T07:36:04;12.68;;;10.77;;
41077;SDS011;26823;42.662;23.352;2023-06-14T07:38:30;16.25;;;11.98;;
41077;SDS011;26823;42.662;23.352;2023-06-14T07:40:55;18.10;;;12.38;;
41077;SDS011;26823;42.662;23.352;2023-06-14T07:43:21;18.00;;;12.95;;
41077;SDS011;26823;42.662;23.352;2023-06-14T07:45:46;20.50;;;13.45;;
41077;SDS011;26823;42.662;23.352;2023-06-14T07:48:12;17.40;;;11.95;;
41077;SDS011;26823;42.662;23.352;2023-06-14T07:50:37;15.38;;;12.20;;
41077;SDS011;26823;42.662;23.352;2023-06-14T07:53:03;17.17;;;13.25;;
41077;SDS011;26823;42.662;23.352;2023-06-14T07:55:28;16.08;;;11.20;;
41077;SDS011;26823;42.662;23.352;2023-06-14T07:57:54;13.45;;;10.52;;
41077;SDS011;26823;42.662;23.352;2023-06-14T08:00:19;9.02;;;7.68;;
41077;SDS011;26823;42.662;23.352;2023-06-14T08:02:45;13.57;;;10.15;;
41077;SDS011;26823;42.662;23.352;2023-06-14T08:05:11;18.27;;;11.88;;
41077;SDS011;26823;42.662;23.352;2023-06-14T08:07:37;13.07;;;9.10;;
41077;SDS011;26823;42.662;23.352;2023-06-14T08:10:04;13.20;;;9.73;;
41077;SDS011;26823;42.662;23.352;2023-06-14T08:12:31;12.32;;;10.77;;
41077;SDS011;26823;42.662;23.352;2023-06-14T08:14:57;16.67;;;11.23;;
41077;SDS011;26823;42.662;23.352;2023-06-14T08:17:22;12.95;;;9.45;;
41077;SDS011;26823;42.662;23.352;2023-06-14T08:19:48;17.13;;;12.60;;
41077;SDS011;26823;42.662;23.352;2023-06-14T08:22:13;15.57;;;11.60;;
41077;SDS011;26823;42.662;23.352;2023-06-14T08:24:39;12.05;;;10.30;;
41077;SDS011;26823;42.662;23.352;2023-06-14T08:27:05;16.05;;;11.57;;
41077;SDS011;26823;42.662;23.352;2023-06-14T08:29:31;18.00;;;12.40;;
41077;SDS011;26823;42.662;23.352;2023-06-14T08:31:57;15.52;;;10.55;;
41077;SDS011;26823;42.662;23.352;2023-06-14T08:34:22;12.02;;;10.48;;
41077;SDS011;26823;42.662;23.352;2023-06-14T08:36:50;15.02;;;11.63;;
41077;SDS011;26823;42.662;23.352;2023-06-14T08:39:16;14.63;;;11.73;;
41077;SDS011;26823;42.662;23.352;2023-06-14T08:41:42;15.85;;;12.13;;
41077;SDS011;26823;42.662;23.352;2023-06-14T08:44:10;12.55;;;10.82;;
41077;SDS011;26823;42.662;23.352;2023-06-14T08:46:36;18.83;;;11.23;;
41077;SDS011;26823;42.662;23.352;2023-06-14T08:49:02;12.77;;;10.93;;
41077;SDS011;26823;42.662;23.352;2023-06-14T08:51:30;11.73;;;10.18;;
41077;SDS011;26823;42.662;23.352;2023-06-14T08:53:59;16.42;;;11.55;;
41077;SDS011;26823;42.662;23.352;2023-06-14T08:56:27;11.93;;;8.77;;
41077;SDS011;26823;42.662;23.352;2023-06-14T08:58:54;17.55;;;10.20;;
41077;SDS011;26823;42.662;23.352;2023-06-14T09:01:20;10.95;;;9.43;;
41077;SDS011;26823;42.662;23.352;2023-06-14T09:03:53;10.18;;;8.88;;
41077;SDS011;26823;42.662;23.352;2023-06-14T09:06:20;14.77;;;11.30;;
41077;SDS011;26823;42.662;23.352;2023-06-14T09:08:48;11.68;;;10.48;;
41077;SDS011;26823;42.662;23.352;2023-06-14T09:11:14;10.63;;;9.23;;
41077;SDS011;26823;42.662;23.352;2023-06-14T09:13:41;14.07;;;10.73;;
41077;SDS011;26823;42.662;23.352;2023-06-14T09:16:07;15.50;;;10.30;;
41077;SDS011;26823;42.662;23.352;2023-06-14T09:18:36;13.18;;;11.02;;
41077;SDS011;26823;42.662;23.352;2023-06-14T09:21:10;12.85;;;11.30;;
41077;SDS011;26823;42.662;23.352;2023-06-14T09:23:46;10.02;;;8.93;;
41077;SDS011;26823;42.662;23.352;2023-06-14T09:26:18;13.98;;;9.90;;
41077;SDS011;26823;42.662;23.352;2023-06-14T09:28:45;13.38;;;11.38;;
41077;SDS011;26823;42.662;23.352;2023-06-14T09:31:12;11.65;;;10.45;;
41077;SDS011;26823;42.662;23.352;2023-06-14T09:33:38;9.75;;;8.75;;
41077;SDS011;26823;42.662;23.352;2023-06-14T09:36:09;10.80;;;9.70;;
41077;SDS011;26823;42.662;23.352;2023-06-14T09:38:39;13.02;;;10.15;;
41077;SDS011;26823;42.662;23.352;2023-06-14T09:41:05;10.75;;;8.23;;
41077;SDS011;26823;42.662;23.352;2023-06-14T09:43:31;11.85;;;9.15;;
41077;SDS011;26823;42.662;23.352;2023-06-14T09:45:59;10.65;;;8.68;;
41077;SDS011;26823;42.662;23.352;2023-06-14T09:48:25;8.75;;;7.85;;
41077;SDS011;26823;42.662;23.352;2023-06-14T09:50:51;11.60;;;10.20;;
41077;SDS011;26823;42.662;23.352;2023-06-14T09:53:19;11.30;;;10.13;;
41077;SDS011;26823;42.662;23.352;2023-06-14T09:55:47;12.68;;;10.27;;
41077;SDS011;26823;42.662;23.352;2023-06-14T09:58:14;11.52;;;9.95;;
41077;SDS011;26823;42.662;23.352;2023-06-14T10:00:41;10.18;;;8.10;;
41077;SDS011;26823;42.662;23.352;2023-06-14T10:03:12;9.55;;;8.18;;
41077;SDS011;26823;42.662;23.352;2023-06-14T10:05:41;7.75;;;7.05;;
41077;SDS011;26823;42.662;23.352;2023-06-14T10:08:10;13.13;;;9.23;;
41077;SDS011;26823;42.662;23.352;2023-06-14T10:10:40;14.00;;;10.07;;
41077;SDS011;26823;42.662;23.352;2023-06-14T10:13:07;11.52;;;9.77;;
41077;SDS011;26823;42.662;23.352;2023-06-14T10:20:34;12.70;;;9.83;;
41077;SDS011;26823;42.662;23.352;2023-06-14T10:23:16;11.35;;;10.18;;
41077;SDS011;26823;42.662;23.352;2023-06-14T10:25:49;10.98;;;9.88;;
41077;SDS011;26823;42.662;23.352;2023-06-14T10:28:19;12.00;;;10.70;;
41077;SDS011;26823;42.662;23.352;2023-06-14T10:31:22;8.87;;;7.97;;
41077;SDS011;26823;42.662;23.352;2023-06-14T10:36:30;10.82;;;9.23;;
41077;SDS011;26823;42.662;23.352;2023-06-14T10:41:26;9.63;;;8.63;;
41077;SDS011;26823;42.662;23.352;2023-06-14T10:44:02;10.05;;;9.02;;
41077;SDS011;26823;42.662;23.352;2023-06-14T10:46:35;10.52;;;8.80;;
41077;SDS011;26823;42.662;23.352;2023-06-14T10:49:00;10.73;;;7.60;;
41077;SDS011;26823;42.662;23.352;2023-06-14T10:51:29;12.13;;;9.07;;
41077;SDS011;26823;42.662;23.352;2023-06-14T10:53:55;10.00;;;8.25;;
41077;SDS011;26823;42.662;23.352;2023-06-14T10:56:29;9.73;;;8.73;;
41077;SDS011;26823;42.662;23.352;2023-06-14T10:59:00;8.50;;;7.60;;
41077;SDS011;26823;42.662;23.352;2023-06-14T11:01:58;17.27;;;8.98;;
41077;SDS011;26823;42.662;23.352;2023-06-14T11:04:52;10.18;;;7.82;;
41077;SDS011;26823;42.662;23.352;2023-06-14T11:07:43;9.63;;;8.18;;
41077;SDS011;26823;42.662;23.352;2023-06-14T11:12:55;13.35;;;11.38;;
41077;SDS011;26823;42.662;23.352;2023-06-14T11:15:27;9.60;;;7.97;;
41077;SDS011;26823;42.662;23.352;2023-06-14T11:17:53;9.45;;;7.68;;
41077;SDS011;26823;42.662;23.352;2023-06-14T11:20:24;8.30;;;7.00;;
41077;SDS011;26823;42.662;23.352;2023-06-14T11:22:51;8.43;;;7.60;;
41077;SDS011;26823;42.662;23.352;2023-06-14T11:25:17;9.82;;;8.30;;
41077;SDS011;26823;42.662;23.352;2023-06-14T11:27:42;9.18;;;8.27;;
41077;SDS011;26823;42.662;23.352;2023-06-14T11:30:08;10.35;;;8.30;;
41077;SDS011;26823;42.662;23.352;2023-06-14T11:32:35;12.30;;;8.25;;
41077;SDS011;26823;42.662;23.352;2023-06-14T11:35:02;9.57;;;7.72;;
41077;SDS011;26823;42.662;23.352;2023-06-14T11:37:55;10.40;;;8.38;;
41077;SDS011;26823;42.662;23.352;2023-06-14T11:40:25;10.07;;;7.93;;
41077;SDS011;26823;42.662;23.352;2023-06-14T11:42:57;9.23;;;7.85;;
41077;SDS011;26823;42.662;23.352;2023-06-14T11:45:24;9.02;;;7.75;;
41077;SDS011;26823;42.662;23.352;2023-06-14T11:47:50;8.85;;;7.47;;
41077;SDS011;26823;42.662;23.352;2023-06-14T11:50:15;10.00;;;7.95;;
41077;SDS011;26823;42.662;23.352;2023-06-14T11:52:41;8.60;;;7.45;;
41077;SDS011;26823;42.662;23.352;2023-06-14T11:55:06;9.65;;;7.95;;
41077;SDS011;26823;42.662;23.352;2023-06-14T11:57:35;8.65;;;6.90;;
41077;SDS011;26823;42.662;23.352;2023-06-14T12:00:06;7.28;;;6.30;;
41077;SDS011;26823;42.662;23.352;2023-06-14T12:02:38;8.13;;;7.20;;
41077;SDS011;26823;42.662;23.352;2023-06-14T12:05:05;7.22;;;6.25;;
41077;SDS011;26823;42.662;23.352;2023-06-14T12:07:42;6.78;;;6.07;;
41077;SDS011;26823;42.662;23.352;2023-06-14T12:10:07;7.07;;;6.20;;
41077;SDS011;26823;42.662;23.352;2023-06-14T12:12:39;5.90;;;5.40;;
41077;SDS011;26823;42.662;23.352;2023-06-14T12:15:08;5.70;;;5.20;;
41077;SDS011;26823;42.662;23.352;2023-06-14T12:17:36;7.65;;;6.03;;
41077;SDS011;26823;42.662;23.352;2023-06-14T12:20:07;8.60;;;6.22;;
41077;SDS011;26823;42.662;23.352;2023-06-14T12:22:36;6.65;;;5.95;;
41077;SDS011;26823;42.662;23.352;2023-06-14T12:25:03;13.13;;;8.82;;
41077;SDS011;26823;42.662;23.352;2023-06-14T12:27:29;7.10;;;5.97;;
41077;SDS011;26823;42.662;23.352;2023-06-14T12:30:02;8.35;;;6.13;;
41077;SDS011;26823;42.662;23.352;2023-06-14T12:32:34;7.35;;;6.05;;
41077;SDS011;26823;42.662;23.352;2023-06-14T12:34:59;9.95;;;6.20;;
41077;SDS011;26823;42.662;23.352;2023-06-14T12:37:24;10.55;;;6.38;;
41077;SDS011;26823;42.662;23.352;2023-06-14T12:39:50;8.10;;;6.30;;
41077;SDS011;26823;42.662;23.352;2023-06-14T12:42:16;6.65;;;6.05;;
41077;SDS011;26823;42.662;23.352;2023-06-14T12:44:41;7.55;;;6.65;;
41077;SDS011;26823;42.662;23.352;2023-06-14T12:47:07;5.93;;;5.32;;
41077;SDS011;26823;42.662;23.352;2023-06-14T12:49:33;9.40;;;6.10;;
41077;SDS011;26823;42.662;23.352;2023-06-14T12:51:58;9.55;;;5.47;;
41077;SDS011;26823;42.662;23.352;2023-06-14T12:54:24;8.00;;;5.93;;
41077;SDS011;26823;42.662;23.352;2023-06-14T12:56:50;5.93;;;5.40;;
41077;SDS011;26823;42.662;23.352;2023-06-14T12:59:20;6.35;;;5.47;;
41077;SDS011;26823;42.662;23.352;2023-06-14T13:01:45;11.15;;;7.28;;
41077;SDS011;26823;42.662;23.352;2023-06-14T13:04:12;9.93;;;6.30;;
41077;SDS011;26823;42.662;23.352;2023-06-14T13:06:37;8.25;;;6.15;;
41077;SDS011;26823;42.662;23.352;2023-06-14T13:09:03;6.97;;;5.63;;
41077;SDS011;26823;42.662;23.352;2023-06-14T13:11:29;6.18;;;5.57;;
41077;SDS011;26823;42.662;23.352;2023-06-14T13:13:55;6.85;;;5.65;;
41077;SDS011;26823;42.662;23.352;2023-06-14T13:16:20;8.82;;;6.07;;
41077;SDS011;26823;42.662;23.352;2023-06-14T13:18:46;8.75;;;6.63;;
41077;SDS011;26823;42.662;23.352;2023-06-14T13:21:12;8.65;;;7.20;;
41077;SDS011;26823;42.662;23.352;2023-06-14T13:23:37;6.38;;;5.78;;
41077;SDS011;26823;42.662;23.352;2023-06-14T13:26:02;6.80;;;6.20;;
41077;SDS011;26823;42.662;23.352;2023-06-14T13:28:28;7.88;;;6.32;;
41077;SDS011;26823;42.662;23.352;2023-06-14T13:30:53;7.78;;;6.38;;
41077;SDS011;26823;42.662;23.352;2023-06-14T13:33:20;7.78;;;6.40;;
41077;SDS011;26823;42.662;23.352;2023-06-14T13:35:46;9.18;;;7.45;;
41077;SDS011;26823;42.662;23.352;2023-06-14T13:38:11;9.95;;;7.10;;
41077;SDS011;26823;42.662;23.352;2023-06-14T13:40:37;8.13;;;7.32;;
41077;SDS011;26823;42.662;23.352;2023-06-14T13:43:02;10.30;;;6.20;;
41077;SDS011;26823;42.662;23.352;2023-06-14T13:45:27;9.00;;;6.60;;
41077;SDS011;26823;42.662;23.352;2023-06-14T13:47:53;10.68;;;7.40;;
41077;SDS011;26823;42.662;23.352;2023-06-14T13:50:19;7.35;;;6.60;;
41077;SDS011;26823;42.662;23.352;2023-06-14T13:52:45;7.47;;;6.15;;
41077;SDS011;26823;42.662;23.352;2023-06-14T13:55:11;10.43;;;7.57;;
41077;SDS011;26823;42.662;23.352;2023-06-14T13:57:36;8.20;;;7.40;;
41077;SDS011;26823;42.662;23.352;2023-06-14T14:00:02;8.63;;;7.68;;
41077;SDS011;26823;42.662;23.352;2023-06-14T14:02:28;10.82;;;7.82;;
41077;SDS011;26823;42.662;23.352;2023-06-14T14:04:54;9.00;;;7.47;;
41077;SDS011;26823;42.662;23.352;2023-06-14T14:07:20;8.43;;;7.13;;
41077;SDS011;26823;42.662;23.352;2023-06-14T14:09:47;8.80;;;6.82;;
41077;SDS011;26823;42.662;23.352;2023-06-14T14:12:12;8.98;;;6.85;;
41077;SDS011;26823;42.662;23.352;2023-06-14T14:14:39;6.95;;;6.35;;
41077;SDS011;26823;42.662;23.352;2023-06-14T14:17:04;9.30;;;6.25;;
41077;SDS011;26823;42.662;23.352;2023-06-14T14:19:31;8.43;;;5.90;;
41077;SDS011;26823;42.662;23.352;2023-06-14T14:21:57;8.02;;;6.57;;
41077;SDS011;26823;42.662;23.352;2023-06-14T14:24:22;6.85;;;6.03;;
41077;SDS011;26823;42.662;23.352;2023-06-14T14:26:48;9.50;;;7.05;;
41077;SDS011;26823;42.662;23.352;2023-06-14T14:29:14;9.65;;;6.72;;
41077;SDS011;26823;42.662;23.352;2023-06-14T14:31:40;13.15;;;5.78;;
41077;SDS011;26823;42.662;23.352;2023-06-14T14:34:06;6.97;;;5.85;;
41077;SDS011;26823;42.662;23.352;2023-06-14T14:36:31;8.85;;;6.95;;
41077;SDS011;26823;42.662;23.352;2023-06-14T14:38:59;9.23;;;7.15;;
41077;SDS011;26823;42.662;23.352;2023-06-14T14:41:25;11.57;;;7.28;;
41077;SDS011;26823;42.662;23.352;2023-06-14T14:43:50;9.20;;;7.35;;